Time;durP1;ratioP1;P1;durP2;ratioP2;P2;SDS_P1;SDS_P2;PMS_P1;PMS_P2;Temp;Humidity;BMP_temperature;BMP_pressure;BME280_temperature;BME280_humidity;BME280_pressure;Samples;Min_cycle;Max_cycle;Signal;HPM_P1;HPM_P2
2023/11/02 08:04:49;;;;;;;;;;;;;;;11.62;100.00;99725.08;1738011;81;20126;-78
2023/11/02 08:07:19;;;;;;;;;;;;;;;11.70;100.00;99724.95;1729114;83;20156;-73
2023/11/02 08:09:47;;;;;;;;;;;;;;;11.78;100.00;99720.56;1730744;80;20442;-74
2023/11/02 08:12:15;;;;;;;;;;;;;;;11.82;100.00;99723.34;1737919;80;20113;-72
2023/11/02 08:14:43;;;;;;;;;;;;;;;11.83;100.00;99733.31;1744442;80;20197;-75
2023/11/02 08:19:41;;;;;;;;;;;;;;;11.83;100.00;99728.09;1741573;80;20142;-78
2023/11/02 08:22:07;;;;;;;;;;;;;;;11.87;100.00;99734.78;1716256;80;20148;-77
2023/11/02 08:24:37;;;;;;;;;;;;;;;11.90;100.00;99731.50;1746756;80;20111;-77
2023/11/02 08:27:04;;;;;;;;;;;;;;;11.95;100.00;99729.43;1742261;80;20513;-81
2023/11/02 08:29:31;;;;;;;;;;;;;;;12.02;100.00;99730.66;1727726;83;20161;-70
2023/11/02 08:42:06;;;;;;;;;;;;;;;12.47;100.00;99736.32;1749128;80;20404;-74
2023/11/02 08:44:33;;;;;;;;;;;;;;;12.53;100.00;99733.29;1745136;80;20115;-74
2023/11/02 08:54:36;;;;;;;;;;;;;;;12.73;100.00;99735.00;1745855;80;20110;-73
2023/11/02 08:57:03;;;;;;;;;;;;;;;12.77;100.00;99732.08;1743792;82;20126;-76
2023/11/02 08:59:32;;;;;;;;;;;;;;;12.78;100.00;99736.83;1738690;82;20113;-72
2023/11/02 09:01:59;;;;;;;;;;;;;;;12.78;100.00;99734.22;1747696;81;20200;-79
2023/11/02 09:04:26;;;;;;;;;;;;;;;12.77;100.00;99743.00;1737845;80;20099;-71
2023/11/02 09:06:53;;;;;;;;;;;;;;;12.75;100.00;99747.49;1754892;80;20222;-73
2023/11/02 09:09:21;;;;;;;;;;;;;;;12.76;100.00;99739.55;1736645;80;20317;-69
2023/11/02 09:11:48;;;;;;;;;;;;;;;12.77;100.00;99737.30;1742719;80;20162;-68
2023/11/02 09:14:14;;;;;;;;;;;;;;;12.78;100.00;99734.22;1747104;80;20150;-67
2023/11/02 09:16:41;;;;;;;;;;;;;;;12.79;100.00;99734.58;1750263;81;20101;-73
2023/11/02 09:19:08;;;;;;;;;;;;;;;12.81;100.00;99737.42;1736214;80;20128;-75
2023/11/02 09:21:38;;;;;;;;;;;;;;;12.84;100.00;99726.76;1739175;80;20382;-72
2023/11/02 09:24:05;;;;;;;;;;;;;;;12.86;100.00;99724.88;1749894;82;20091;-74
2023/11/02 09:26:32;;;;;;;;;;;;;;;12.89;100.00;99725.13;1742241;82;20390;-74
2023/11/02 09:28:59;;;;;;;;;;;;;;;12.87;100.00;99725.70;1733411;82;20107;-76
2023/11/02 09:31:29;;;;;;;;;;;;;;;12.84;100.00;99728.53;1732823;82;20110;-73
2023/11/02 09:34:02;;;;;;;;;;;;;;;12.76;100.00;99729.56;1747835;80;20415;-70
2023/11/02 09:36:30;;;;;;;;;;;;;;;12.67;100.00;99724.03;1748055;80;20095;-72
2023/11/02 09:39:00;;;;;;;;;;;;;;;12.55;100.00;99728.80;1745613;80;20168;-70
2023/11/02 09:41:27;;;;;;;;;;;;;;;12.38;100.00;99727.83;1744540;80;20181;-69
2023/11/02 09:49:03;;;;;;;;;;;;;;;11.90;100.00;99725.45;1751060;81;20141;-74
2023/11/02 09:51:30;;;;;;;;;;;;;;;11.83;100.00;99728.93;1749624;80;20106;-70
2023/11/02 10:32:38;;;;;;;;;;;;;;;11.16;100.00;99709.82;1736166;80;20466;-74
2023/11/02 10:35:06;;;;;;;;;;;;;;;11.17;100.00;99717.17;1754260;80;20173;-70
2023/11/02 10:37:34;;;;;;;;;;;;;;;11.17;100.00;99710.66;1745632;80;20178;-70
2023/11/02 10:40:00;;;;;;;;;;;;;;;11.19;100.00;99710.93;1741162;80;20172;-69
2023/11/02 10:52:46;;;;;;;;;;;;;;;11.29;100.00;99716.37;1745594;80;20143;-73
2023/11/02 10:55:16;;;;;;;;;;;;;;;11.31;100.00;99708.82;1748713;80;20146;-72
2023/11/02 10:57:44;;;;;;;;;;;;;;;11.34;100.00;99706.02;1764269;81;20154;-73
2023/11/02 11:00:11;;;;;;;;;;;;;;;11.39;100.00;99705.72;1749161;80;20134;-70
2023/11/02 11:33:19;;;;;;;;;;;;;;;12.31;100.00;99697.39;1756789;82;20499;-72
2023/11/02 11:36:07;;;;;;;;;;;;;;;12.34;100.00;99695.87;1738471;82;20131;-70
2023/11/02 12:26:24;;;;;;;;;;;;;;;11.64;100.00;99704.95;1737391;82;20123;-72
2023/11/02 12:28:52;;;;;;;;;;;;;;;11.62;100.00;99702.91;1738445;82;20455;-67
2023/11/02 12:31:29;;;;;;;;;;;;;;;11.60;100.00;99695.65;1769054;81;20163;-68
2023/11/02 12:34:01;;;;;;;;;;;;;;;11.59;100.00;99700.53;1770250;79;20115;-70
2023/11/02 12:36:28;;;;;;;;;;;;;;;11.57;100.00;99706.31;1771281;79;20106;-71
2023/11/02 12:38:59;;;;;;;;;;;;;;;11.55;100.00;99699.89;1724419;81;20154;-72
2023/11/02 12:41:30;;;;;;;;;;;;;;;11.55;100.00;99704.27;1750275;81;20157;-72
2023/11/02 12:44:04;;;;;;;;;;;;;;;11.53;100.00;99700.92;1735691;82;20097;-69
2023/11/02 12:46:42;;;;;;;;;;;;;;;11.50;100.00;99702.42;1752791;81;20133;-69
2023/11/02 13:10:06;;;;;;;;;;;;;;;11.23;100.00;99708.94;1756880;80;20146;-70
2023/11/02 13:12:34;;;;;;;;;;;;;;;11.20;100.00;99713.88;1738560;80;20147;-69
2023/11/02 13:20:09;;;;;;;;;;;;;;;11.13;100.00;99723.51;1738291;81;20108;-76
2023/11/02 13:22:37;;;;;;;;;;;;;;;11.10;100.00;99726.30;1744216;81;20145;-78
2023/11/02 13:25:05;;;;;;;;;;;;;;;11.07;100.00;99718.68;1741761;80;20398;-74
2023/11/02 13:27:33;;;;;;;;;;;;;;;11.05;100.00;99718.78;1728889;81;20126;-75
2023/11/02 13:30:06;;;;;;;;;;;;;;;11.01;100.00;99712.92;1734572;82;20133;-77
2023/11/02 13:32:34;;;;;;;;;;;;;;;10.98;100.00;99710.97;1745024;80;20101;-70
2023/11/02 13:57:55;;;;;;;;;;;;;;;10.64;100.00;99727.86;1750484;81;20124;-74
2023/11/02 14:00:21;;;;;;;;;;;;;;;10.58;100.00;99732.97;1750023;80;20099;-69
2023/11/02 14:02:48;;;;;;;;;;;;;;;10.53;100.00;99731.58;1746026;80;20112;-68
2023/11/02 14:05:14;;;;;;;;;;;;;;;10.47;100.00;99734.08;1748211;82;20182;-70
2023/11/02 14:07:42;;;;;;;;;;;;;;;10.43;100.00;99731.29;1750095;80;20215;-68
2023/11/02 14:10:09;;;;;;;;;;;;;;;10.38;100.00;99732.52;1753024;80;20149;-74
2023/11/02 14:12:36;;;;;;;;;;;;;;;10.33;100.00;99730.19;1745467;80;20192;-72
2023/11/02 14:15:07;;;;;;;;;;;;;;;10.28;100.00;99729.63;1738779;81;20129;-74
2023/11/02 14:17:32;;;;;;;;;;;;;;;10.24;100.00;99738.08;1749630;81;20134;-73
2023/11/02 14:32:43;;;;;;;;;;;;;;;9.91;100.00;99727.87;1749100;80;20144;-69
